Time;durP1;ratioP1;P1;durP2;ratioP2;P2;SDS_P1;SDS_P2;PMS_P1;PMS_P2;Temp;Humidity;BMP_temperature;BMP_pressure;BME280_temperature;BME280_humidity;BME280_pressure;Samples;Min_cycle;Max_cycle;Signal;HPM_P1;HPM_P2
2023/06/15 00:02:53;;;;;;;4.70;4.30;;;23.40;84.30;;;;;;6204379;28;89124;-68
2023/06/15 00:05:55;;;;;;;5.40;4.90;;;23.40;84.30;;;;;;6205599;28;89158;-69
2023/06/15 00:08:58;;;;;;;5.28;4.78;;;23.40;84.20;;;;;;6206247;28;88282;-69
2023/06/15 00:12:00;;;;;;;4.53;4.13;;;23.40;84.20;;;;;;6196413;28;88822;-69
2023/06/15 00:15:02;;;;;;;4.60;4.20;;;23.40;84.20;;;;;;6194942;28;89591;-68
2023/06/15 00:18:05;;;;;;;4.90;4.40;;;23.40;84.20;;;;;;6203857;28;90031;-68
2023/06/15 00:21:08;;;;;;;4.78;4.38;;;23.40;84.20;;;;;;6206432;28;87965;-69
2023/06/15 00:24:10;;;;;;;4.72;4.32;;;23.40;84.20;;;;;;6200395;28;87906;-68
2023/06/15 00:27:12;;;;;;;5.28;4.78;;;23.40;84.20;;;;;;6185550;28;89108;-69
2023/06/15 00:30:14;;;;;;;4.72;4.32;;;23.40;84.20;;;;;;6202470;28;89044;-68
2023/06/15 00:33:17;;;;;;;4.68;4.28;;;23.40;84.30;;;;;;6200231;28;89730;-69
2023/06/15 00:36:20;;;;;;;4.72;4.32;;;23.40;84.30;;;;;;6204379;28;88062;-68
2023/06/15 00:39:21;;;;;;;4.30;3.90;;;23.40;84.30;;;;;;6202070;28;88571;-68
2023/06/15 00:42:23;;;;;;;4.93;4.45;;;23.40;84.40;;;;;;6205102;28;89504;-68
2023/06/15 00:45:25;;;;;;;4.63;4.22;;;23.40;84.40;;;;;;6204368;28;89189;-69
2023/06/15 00:48:29;;;;;;;5.68;5.07;;;23.40;84.40;;;;;;6204733;28;90099;-69
2023/06/15 00:51:32;;;;;;;5.50;4.63;;;23.30;84.40;;;;;;6206039;28;89105;-69
2023/06/15 00:54:34;;;;;;;5.20;4.70;;;23.40;84.40;;;;;;6202543;28;89045;-69
2023/06/15 00:57:37;;;;;;;5.95;5.35;;;23.40;84.40;;;;;;6195206;28;89045;-69
2023/06/15 01:00:39;;;;;;;5.50;5.00;;;23.40;84.40;;;;;;6205590;28;89169;-68
2023/06/15 01:03:44;;;;;;;5.15;4.65;;;23.40;84.40;;;;;;6199957;28;89264;-69
2023/06/15 01:06:52;;;;;;;5.38;4.88;;;23.40;84.40;;;;;;6202724;28;89285;-68
2023/06/15 01:09:54;;;;;;;4.95;4.55;;;23.40;84.40;;;;;;6205427;28;89007;-68
2023/06/15 01:12:57;;;;;;;5.13;4.65;;;23.40;84.40;;;;;;6201490;28;89075;-68
2023/06/15 01:16:02;;;;;;;5.30;4.90;;;23.40;84.40;;;;;;6203704;28;89144;-68
2023/06/15 01:19:09;;;;;;;5.13;4.72;;;23.40;84.40;;;;;;6204040;28;89958;-68
2023/06/15 01:22:20;;;;;;;5.55;5.05;;;23.40;84.40;;;;;;6196388;28;87763;-68
2023/06/15 01:25:29;;;;;;;5.60;5.10;;;23.40;84.40;;;;;;6191529;28;87987;-69
2023/06/15 01:28:34;;;;;;;5.55;5.05;;;23.40;84.40;;;;;;6202144;28;89271;-69
2023/06/15 01:31:37;;;;;;;5.28;4.88;;;23.40;84.40;;;;;;6184598;28;89070;-68
2023/06/15 01:34:39;;;;;;;5.57;5.07;;;23.40;84.50;;;;;;6199678;28;89010;-69
2023/06/15 01:37:41;;;;;;;6.00;5.45;;;23.40;85.40;;;;;;6198017;28;89230;-68
2023/06/15 01:40:46;;;;;;;6.15;5.57;;;23.40;84.50;;;;;;6201157;28;88372;-69
2023/06/15 01:43:49;;;;;;;5.20;4.70;;;23.40;84.50;;;;;;6194091;28;89082;-69
2023/06/15 01:46:51;;;;;;;5.40;4.90;;;23.30;84.50;;;;;;6202469;28;89130;-69
2023/06/15 01:49:54;;;;;;;6.18;5.68;;;23.40;84.60;;;;;;6191932;28;89945;-69
2023/06/15 01:52:56;;;;;;;5.93;5.43;;;23.40;84.70;;;;;;6203982;28;89069;-68
2023/06/15 01:55:59;;;;;;;6.00;5.50;;;23.40;84.60;;;;;;6204043;28;89382;-68
2023/06/15 01:59:03;;;;;;;6.85;5.93;;;23.40;84.50;;;;;;6207311;28;89136;-69
2023/06/15 02:02:05;;;;;;;5.88;5.28;;;23.40;84.50;;;;;;6188764;28;87910;-68
2023/06/15 02:05:08;;;;;;;6.50;5.90;;;23.30;84.50;;;;;;6202227;28;89274;-69
2023/06/15 02:08:11;;;;;;;5.90;5.40;;;23.40;84.50;;;;;;6198919;28;89149;-69
2023/06/15 02:11:15;;;;;;;6.95;5.90;;;23.40;84.50;;;;;;6200293;28;88287;-70
2023/06/15 02:14:18;;;;;;;6.53;5.90;;;23.40;84.50;;;;;;6201639;28;89105;-69
2023/06/15 02:17:23;;;;;;;6.40;5.80;;;23.40;84.60;;;;;;6208266;28;89476;-69
2023/06/15 02:20:26;;;;;;;6.10;5.50;;;23.30;84.60;;;;;;6207576;28;89893;-69
2023/06/15 02:23:28;;;;;;;6.45;5.93;;;23.40;84.70;;;;;;6204285;28;89861;-69
2023/06/15 02:26:30;;;;;;;7.03;6.32;;;23.40;84.60;;;;;;6195120;28;88047;-69
2023/06/15 02:29:33;;;;;;;6.07;5.57;;;23.40;84.70;;;;;;6203864;28;88024;-69
2023/06/15 02:32:37;;;;;;;6.32;5.80;;;23.40;84.70;;;;;;6208488;28;88940;-69
2023/06/15 02:35:39;;;;;;;6.07;5.47;;;23.40;84.70;;;;;;6197836;28;89153;-69
2023/06/15 02:38:41;;;;;;;4.85;4.38;;;23.40;84.70;;;;;;6192974;28;89088;-69
2023/06/15 02:41:43;;;;;;;6.65;6.05;;;23.40;84.80;;;;;;6207367;28;88450;-69
2023/06/15 02:44:46;;;;;;;7.20;6.50;;;23.30;84.70;;;;;;6206953;28;89128;-69
2023/06/15 02:47:48;;;;;;;7.15;6.47;;;23.30;84.70;;;;;;6206953;28;89477;-69
2023/06/15 02:50:50;;;;;;;6.88;6.20;;;23.40;84.70;;;;;;6197030;28;90040;-69
2023/06/15 02:53:52;;;;;;;6.35;5.78;;;23.30;84.70;;;;;;6205222;28;89214;-68
2023/06/15 02:56:55;;;;;;;6.05;5.53;;;23.40;84.70;;;;;;6206663;28;89093;-69
2023/06/15 02:59:58;;;;;;;6.15;5.63;;;23.40;84.70;;;;;;6190469;28;89239;-69
2023/06/15 03:03:01;;;;;;;6.53;5.93;;;23.30;84.70;;;;;;6196022;28;89156;-69
2023/06/15 03:06:03;;;;;;;6.95;6.35;;;23.40;84.70;;;;;;6207388;28;89096;-69
2023/06/15 03:09:07;;;;;;;7.05;6.40;;;23.40;84.70;;;;;;6207063;28;89131;-69
2023/06/15 03:12:09;;;;;;;7.20;6.55;;;23.40;84.70;;;;;;6197902;28;87364;-69
2023/06/15 03:15:13;;;;;;;7.32;6.65;;;23.40;84.80;;;;;;6207985;28;88894;-69
2023/06/15 03:18:16;;;;;;;7.30;6.65;;;23.30;84.70;;;;;;6207623;28;89142;-69
2023/06/15 03:21:20;;;;;;;7.40;6.70;;;23.30;84.70;;;;;;6206989;28;90068;-69
2023/06/15 03:24:23;;;;;;;7.45;6.75;;;23.30;84.70;;;;;;6206021;28;90275;-68
2023/06/15 03:27:26;;;;;;;7.68;6.97;;;23.30;84.70;;;;;;6201621;28;89496;-69
2023/06/15 03:30:30;;;;;;;6.90;6.22;;;23.30;84.90;;;;;;6189025;28;87909;-68
2023/06/15 03:33:32;;;;;;;6.85;6.15;;;23.30;84.80;;;;;;6202789;28;89116;-69
2023/06/15 03:36:35;;;;;;;7.20;6.60;;;23.30;84.90;;;;;;6202548;28;88876;-68
2023/06/15 03:39:37;;;;;;;8.20;7.32;;;23.30;84.90;;;;;;6206459;28;89250;-68
2023/06/15 03:42:39;;;;;;;7.63;6.93;;;23.40;84.90;;;;;;6203852;28;88395;-69
2023/06/15 03:45:43;;;;;;;7.30;6.60;;;23.30;84.80;;;;;;6203383;28;89179;-68
2023/06/15 03:48:45;;;;;;;6.78;6.05;;;23.30;84.80;;;;;;6200969;28;89081;-68
2023/06/15 03:51:47;;;;;;;6.53;5.93;;;23.30;84.90;;;;;;6206515;28;89084;-68
2023/06/15 03:54:49;;;;;;;7.30;6.70;;;23.30;84.90;;;;;;6205906;28;89092;-68
2023/06/15 03:57:51;;;;;;;7.53;6.82;;;23.30;84.90;;;;;;6205124;28;88988;-68
2023/06/15 04:00:56;;;;;;;7.20;6.55;;;23.30;84.80;;;;;;6206176;28;88267;-68
2023/06/15 04:03:58;;;;;;;8.15;7.32;;;23.30;84.80;;;;;;6205075;28;89005;-68
2023/06/15 04:07:00;;;;;;;7.47;6.78;;;23.30;84.90;;;;;;6206446;28;89171;-68
2023/06/15 04:10:02;;;;;;;7.50;6.80;;;23.30;84.90;;;;;;6202246;28;88981;-68
2023/06/15 04:13:05;;;;;;;7.55;6.80;;;23.30;84.90;;;;;;6199178;28;90389;-69
2023/06/15 04:16:10;;;;;;;7.63;6.93;;;23.30;84.90;;;;;;6206440;28;88764;-68
2023/06/15 04:19:13;;;;;;;8.13;7.43;;;23.30;84.90;;;;;;6207489;28;88847;-69
2023/06/15 04:22:15;;;;;;;7.10;6.50;;;23.30;84.90;;;;;;6204329;28;88955;-69
2023/06/15 04:25:17;;;;;;;6.03;5.53;;;23.30;85.00;;;;;;6205479;28;89182;-68
2023/06/15 04:28:20;;;;;;;7.35;6.65;;;23.30;85.00;;;;;;6192914;28;89125;-69
2023/06/15 04:31:24;;;;;;;7.45;6.75;;;23.30;85.00;;;;;;6204020;28;89067;-68
2023/06/15 04:34:27;;;;;;;7.50;6.80;;;23.30;85.00;;;;;;6204822;28;89029;-69
2023/06/15 04:37:29;;;;;;;7.78;7.07;;;23.30;85.00;;;;;;6206078;28;89096;-69
2023/06/15 04:40:32;;;;;;;7.22;6.53;;;23.30;85.00;;;;;;6206075;28;88999;-69
2023/06/15 04:43:34;;;;;;;7.38;6.68;;;23.30;85.90;;;;;;6206128;28;88668;-69
2023/06/15 04:46:38;;;;;;;7.47;6.78;;;23.30;85.00;;;;;;6206039;28;89020;-69
2023/06/15 04:49:42;;;;;;;7.15;6.55;;;23.30;85.00;;;;;;6201353;28;89156;-69
2023/06/15 04:52:44;;;;;;;7.30;6.60;;;23.30;84.90;;;;;;6196741;28;88967;-69
2023/06/15 04:55:49;;;;;;;7.55;6.75;;;23.30;85.00;;;;;;6205400;28;90591;-69
2023/06/15 04:58:51;;;;;;;6.85;6.25;;;23.30;85.00;;;;;;6199215;28;89362;-69
2023/06/15 05:01:54;;;;;;;7.45;6.75;;;23.30;85.00;;;;;;6205525;28;89416;-68
2023/06/15 05:04:56;;;;;;;7.38;6.68;;;23.30;85.00;;;;;;6205476;28;89675;-69
2023/06/15 05:07:58;;;;;;;7.40;6.70;;;23.30;85.00;;;;;;6205721;28;89231;-68
2023/06/15 05:11:01;;;;;;;7.97;7.25;;;23.30;85.00;;;;;;6202165;28;89122;-68
2023/06/15 05:14:03;;;;;;;7.43;6.72;;;23.30;85.00;;;;;;6199594;28;88507;-68
2023/06/15 05:17:07;;;;;;;6.40;5.80;;;23.30;85.00;;;;;;6201688;28;89349;-68
2023/06/15 05:20:10;;;;;;;7.10;6.40;;;23.30;85.00;;;;;;6205227;28;89074;-68
2023/06/15 05:23:12;;;;;;;6.47;5.88;;;23.30;85.00;;;;;;6204443;28;90099;-68
2023/06/15 05:26:15;;;;;;;6.70;6.10;;;23.30;85.00;;;;;;6200058;28;87773;-68
2023/06/15 05:29:17;;;;;;;7.80;7.10;;;23.30;85.00;;;;;;6198812;28;88032;-68
2023/06/15 05:32:20;;;;;;;7.13;6.53;;;23.30;85.00;;;;;;6197740;28;89541;-69
2023/06/15 05:35:22;;;;;;;6.80;6.20;;;23.30;85.00;;;;;;6208334;28;89062;-68
2023/06/15 05:38:24;;;;;;;6.90;6.30;;;23.30;85.00;;;;;;6202745;28;89109;-68
2023/06/15 05:41:26;;;;;;;7.03;6.40;;;23.30;85.00;;;;;;6204094;28;89040;-68
2023/06/15 05:44:28;;;;;;;8.25;7.15;;;23.30;85.00;;;;;;6204802;28;88355;-69
2023/06/15 05:47:32;;;;;;;7.07;6.47;;;23.30;85.00;;;;;;6208671;28;89103;-69
2023/06/15 05:50:35;;;;;;;7.10;6.50;;;23.30;85.00;;;;;;6208976;28;89433;-68
2023/06/15 05:53:37;;;;;;;7.00;6.40;;;23.30;85.00;;;;;;6208247;28;90512;-68
2023/06/15 05:56:39;;;;;;;6.47;5.88;;;23.30;85.00;;;;;;6208607;28;89056;-68
2023/06/15 05:59:42;;;;;;;7.18;6.47;;;23.30;85.00;;;;;;6208616;28;89130;-68
2023/06/15 06:02:45;;;;;;;7.20;6.50;;;23.30;85.00;;;;;;6209366;28;89249;-69
2023/06/15 06:05:47;;;;;;;7.35;6.70;;;23.30;85.00;;;;;;6203333;28;89136;-69
2023/06/15 06:08:49;;;;;;;7.63;6.93;;;23.30;85.00;;;;;;6201164;28;89091;-68
2023/06/15 06:11:51;;;;;;;7.10;6.50;;;23.30;85.00;;;;;;6200412;28;89094;-69
2023/06/15 06:14:53;;;;;;;6.72;6.10;;;23.30;85.10;;;;;;6203488;28;88239;-68
2023/06/15 06:17:56;;;;;;;7.53;6.78;;;23.30;85.10;;;;;;6207894;28;89205;-68
2023/06/15 06:20:58;;;;;;;7.47;6.78;;;23.30;85.10;;;;;;6209103;28;89056;-69
2023/06/15 06:24:00;;;;;;;7.97;7.28;;;23.30;85.20;;;;;;6207231;28;88881;-68
2023/06/15 06:27:02;;;;;;;7.90;7.20;;;23.30;85.20;;;;;;6208144;28;89368;-69
2023/06/15 06:30:05;;;;;;;7.30;6.60;;;23.30;85.20;;;;;;6199004;28;89432;-68
2023/06/15 06:33:08;;;;;;;7.32;6.65;;;23.30;85.20;;;;;;6206831;28;87960;-69
2023/06/15 06:36:10;;;;;;;6.95;6.32;;;23.30;85.10;;;;;;6208240;28;87863;-69
2023/06/15 06:39:12;;;;;;;7.35;6.65;;;23.30;85.10;;;;;;6198987;28;89258;-68
2023/06/15 06:42:14;;;;;;;7.03;6.43;;;23.30;85.10;;;;;;6195892;28;88995;-68
2023/06/15 06:45:16;;;;;;;7.10;6.50;;;23.30;85.20;;;;;;6200087;28;88517;-69
2023/06/15 06:48:20;;;;;;;7.15;6.45;;;23.30;85.20;;;;;;6202097;28;87816;-68
2023/06/15 06:51:22;;;;;;;7.00;6.40;;;23.30;85.20;;;;;;6202350;28;89088;-69
2023/06/15 06:54:24;;;;;;;7.80;7.10;;;23.30;85.20;;;;;;6198762;28;89996;-68
2023/06/15 06:57:26;;;;;;;7.65;6.95;;;23.30;85.20;;;;;;6207546;28;89033;-69
2023/06/15 07:00:29;;;;;;;7.45;6.72;;;23.30;85.20;;;;;;6194046;28;89131;-68
2023/06/15 07:03:32;;;;;;;7.35;6.75;;;23.30;85.30;;;;;;6208427;28;88172;-69
2023/06/15 07:06:34;;;;;;;7.13;6.53;;;23.30;85.30;;;;;;6195290;28;89081;-68
2023/06/15 07:09:36;;;;;;;6.97;6.38;;;23.30;85.20;;;;;;6206385;28;89012;-68
2023/06/15 07:12:38;;;;;;;6.82;6.22;;;23.30;85.20;;;;;;6200691;28;89019;-68
2023/06/15 07:15:41;;;;;;;7.20;6.60;;;23.30;85.30;;;;;;6202584;28;87233;-68
2023/06/15 07:18:44;;;;;;;7.05;6.43;;;23.30;85.20;;;;;;6203549;28;89157;-68
2023/06/15 07:21:46;;;;;;;7.85;7.15;;;23.30;85.20;;;;;;6207178;28;88997;-69
2023/06/15 07:24:48;;;;;;;6.82;6.13;;;23.30;85.30;;;;;;6199660;28;90101;-69
2023/06/15 07:27:50;;;;;;;7.80;7.10;;;23.30;85.20;;;;;;6193100;28;89221;-68
2023/06/15 07:30:52;;;;;;;7.78;7.07;;;23.30;85.20;;;;;;6201019;28;89168;-68
2023/06/15 07:33:56;;;;;;;7.70;6.82;;;23.30;85.40;;;;;;6204618;28;89078;-69
2023/06/15 07:36:58;;;;;;;6.90;6.30;;;23.30;85.30;;;;;;6205783;28;89057;-68
2023/06/15 07:40:00;;;;;;;6.88;6.20;;;23.30;85.40;;;;;;6204896;28;87981;-68
2023/06/15 07:43:02;;;;;;;7.22;6.63;;;23.30;85.30;;;;;;6206647;28;89046;-68
2023/06/15 07:46:04;;;;;;;7.53;6.80;;;23.30;85.30;;;;;;6206088;28;88371;-68
2023/06/15 07:49:08;;;;;;;6.90;6.30;;;23.30;85.40;;;;;;6206876;28;89059;-68
2023/06/15 07:52:10;;;;;;;6.82;6.22;;;23.30;85.40;;;;;;6207105;28;89099;-68
2023/06/15 07:55:12;;;;;;;7.10;6.50;;;23.30;85.40;;;;;;6204821;28;89996;-68
2023/06/15 07:58:14;;;;;;;7.50;6.78;;;23.30;85.40;;;;;;6206220;28;89377;-68
2023/06/15 08:01:16;;;;;;;6.97;6.38;;;23.30;85.40;;;;;;6205656;28;89028;-69
2023/06/15 08:04:20;;;;;;;6.78;6.18;;;23.30;85.40;;;;;;6205469;28;89228;-69
2023/06/15 08:07:22;;;;;;;6.55;6.05;;;23.30;85.40;;;;;;6206310;28;89087;-69
2023/06/15 08:10:24;;;;;;;7.50;6.78;;;23.30;85.40;;;;;;6199059;28;89063;-69
2023/06/15 08:13:26;;;;;;;7.20;6.60;;;23.30;85.40;;;;;;6199781;28;88997;-69
2023/06/15 08:16:29;;;;;;;7.03;6.43;;;23.30;85.40;;;;;;6205970;28;88245;-69
2023/06/15 08:19:33;;;;;;;7.13;6.53;;;23.30;85.40;;;;;;6193837;28;89132;-69
2023/06/15 08:22:34;;;;;;;7.07;6.45;;;23.30;86.40;;;;;;6205479;28;89080;-69
2023/06/15 08:25:37;;;;;;;7.00;6.40;;;23.30;85.50;;;;;;6205439;28;89008;-69
2023/06/15 08:28:39;;;;;;;7.00;6.40;;;23.30;85.40;;;;;;6203675;28;89339;-68
2023/06/15 08:31:41;;;;;;;6.18;5.68;;;23.30;85.40;;;;;;6202506;28;89149;-68
2023/06/15 08:34:45;;;;;;;6.90;6.30;;;23.30;85.50;;;;;;6203908;28;87937;-68
2023/06/15 08:37:47;;;;;;;6.90;6.30;;;23.30;85.50;;;;;;6190994;28;89204;-68
2023/06/15 08:40:49;;;;;;;7.10;6.45;;;23.30;85.40;;;;;;6205772;28;90261;-69
2023/06/15 08:43:54;;;;;;;7.15;6.55;;;23.30;85.40;;;;;;6196751;28;89390;-68
2023/06/15 08:46:57;;;;;;;6.82;6.22;;;23.30;85.40;;;;;;6202691;28;88415;-68
2023/06/15 08:50:02;;;;;;;6.70;6.10;;;23.30;85.40;;;;;;6205281;28;89200;-68
2023/06/15 08:53:05;;;;;;;6.90;6.30;;;23.30;85.40;;;;;;6205451;28;87943;-69
2023/06/15 08:56:11;;;;;;;6.68;6.07;;;23.30;85.40;;;;;;6205336;28;89129;-69
2023/06/15 08:59:13;;;;;;;6.95;6.35;;;23.30;85.40;;;;;;6205408;28;89126;-68
2023/06/15 09:02:21;;;;;;;7.15;6.50;;;23.30;85.40;;;;;;6202709;28;89025;-68
2023/06/15 09:05:26;;;;;;;6.70;6.10;;;23.30;85.40;;;;;;6195042;28;87863;-69
2023/06/15 09:08:27;;;;;;;6.53;5.93;;;23.30;85.40;;;;;;6197312;28;89254;-68
2023/06/15 09:11:30;;;;;;;6.80;6.20;;;23.30;85.40;;;;;;6208908;28;89309;-68
2023/06/15 09:14:39;;;;;;;6.50;5.90;;;23.30;85.30;;;;;;6205167;28;89116;-69
2023/06/15 09:17:41;;;;;;;6.65;6.05;;;23.30;85.30;;;;;;6198977;28;88361;-68
2023/06/15 09:20:45;;;;;;;6.32;5.72;;;23.30;85.30;;;;;;6196828;28;89824;-69
2023/06/15 09:23:47;;;;;;;7.00;6.40;;;23.30;85.30;;;;;;6209074;28;89256;-68
2023/06/15 09:26:49;;;;;;;6.63;6.03;;;23.30;85.20;;;;;;6208724;28;90265;-68
2023/06/15 09:30:07;;;;;;;6.50;5.90;;;23.30;85.10;;;;;;6209264;28;89370;-68
2023/06/15 09:33:13;;;;;;;6.65;6.05;;;23.30;85.10;;;;;;6200706;28;89451;-69
2023/06/15 09:36:16;;;;;;;6.47;5.90;;;23.30;85.00;;;;;;6199858;28;89169;-68
2023/06/15 09:39:23;;;;;;;6.72;6.13;;;23.30;85.00;;;;;;6209904;28;89103;-68
2023/06/15 09:42:26;;;;;;;6.00;5.50;;;23.30;85.00;;;;;;6209056;28;89295;-68
2023/06/15 09:45:28;;;;;;;6.28;5.68;;;23.30;85.10;;;;;;6203905;28;89055;-69
2023/06/15 09:48:31;;;;;;;6.15;5.65;;;23.30;85.10;;;;;;6189167;28;88338;-68
2023/06/15 09:51:36;;;;;;;6.07;5.57;;;23.30;85.10;;;;;;6204192;28;87928;-69
2023/06/15 09:54:40;;;;;;;6.55;6.05;;;23.30;85.20;;;;;;6196588;28;89103;-69
2023/06/15 09:57:42;;;;;;;6.30;5.70;;;23.30;85.20;;;;;;6208622;28;90004;-68
2023/06/15 10:00:44;;;;;;;6.57;5.97;;;23.30;85.20;;;;;;6207811;28;89269;-68
2023/06/15 10:03:53;;;;;;;6.97;5.80;;;23.30;85.20;;;;;;6208619;28;89050;-68
2023/06/15 10:07:02;;;;;;;6.45;5.85;;;23.30;85.10;;;;;;6208445;28;89009;-68
2023/06/15 10:10:05;;;;;;;6.45;5.85;;;23.30;85.10;;;;;;6197840;28;89044;-69
2023/06/15 10:13:11;;;;;;;6.43;5.82;;;23.30;85.10;;;;;;6178839;28;88725;-69
2023/06/15 10:16:16;;;;;;;6.38;5.70;;;23.30;85.20;;;;;;6208612;28;88986;-68
2023/06/15 10:19:22;;;;;;;6.20;5.60;;;23.30;85.20;;;;;;6208931;28;87298;-68
2023/06/15 10:22:27;;;;;;;6.20;5.60;;;23.30;85.20;;;;;;6209612;28;89120;-68
2023/06/15 10:25:31;;;;;;;6.07;5.57;;;23.30;85.20;;;;;;6207553;28;89278;-69
2023/06/15 10:28:36;;;;;;;5.90;5.40;;;23.40;85.30;;;;;;6207556;28;89686;-68
2023/06/15 10:31:44;;;;;;;6.00;5.50;;;23.30;85.20;;;;;;6207818;28;89152;-68
2023/06/15 10:34:53;;;;;;;5.70;5.20;;;23.30;85.20;;;;;;6205843;28;89136;-68
2023/06/15 10:38:04;;;;;;;5.85;5.35;;;23.30;85.20;;;;;;6203886;28;89352;-68
2023/06/15 10:41:07;;;;;;;5.93;5.38;;;23.30;85.20;;;;;;6203620;28;89270;-69
2023/06/15 10:44:14;;;;;;;5.63;5.20;;;23.30;85.20;;;;;;6207402;28;89087;-68
2023/06/15 10:47:22;;;;;;;6.13;5.53;;;23.30;85.20;;;;;;6207202;28;88118;-68
2023/06/15 10:50:25;;;;;;;5.82;5.32;;;23.30;85.20;;;;;;6200259;28;88349;-68
2023/06/15 10:53:29;;;;;;;5.85;5.35;;;23.30;85.10;;;;;;6207696;28;89264;-68
2023/06/15 10:56:32;;;;;;;5.50;5.00;;;23.30;85.10;;;;;;6208456;28;89118;-69
2023/06/15 10:59:42;;;;;;;5.70;5.20;;;23.30;85.20;;;;;;6193080;28;90785;-68
2023/06/15 11:02:58;;;;;;;5.28;4.88;;;23.30;85.20;;;;;;6189785;28;89315;-69
2023/06/15 11:06:08;;;;;;;5.78;5.20;;;23.30;85.20;;;;;;6189078;28;89148;-68
2023/06/15 11:09:14;;;;;;;5.80;5.30;;;23.30;85.20;;;;;;6205909;28;89181;-69
2023/06/15 11:12:35;;;;;;;5.32;4.93;;;23.30;85.10;;;;;;6203504;28;87681;-69
2023/06/15 11:15:37;;;;;;;5.82;5.22;;;23.30;85.10;;;;;;6201362;28;89048;-69
2023/06/15 11:19:15;;;;;;;5.65;5.15;;;23.30;85.20;;;;;;6207398;28;89053;-69
2023/06/15 11:22:25;;;;;;;5.25;4.85;;;23.30;85.20;;;;;;6194741;28;88460;-69
2023/06/15 11:25:29;;;;;;;5.75;5.20;;;23.30;85.10;;;;;;6206027;28;89204;-69
2023/06/15 11:28:33;;;;;;;5.65;5.15;;;23.30;85.00;;;;;;6194712;28;89161;-68
2023/06/15 11:31:35;;;;;;;5.70;5.20;;;23.30;85.00;;;;;;6192466;28;90025;-68
2023/06/15 11:34:38;;;;;;;5.38;4.97;;;23.30;85.10;;;;;;6200764;28;89108;-69
2023/06/15 11:37:41;;;;;;;5.22;4.82;;;23.30;85.00;;;;;;6203829;28;89059;-69
2023/06/15 11:40:47;;;;;;;5.10;4.70;;;23.30;85.00;;;;;;6205974;28;89370;-69
2023/06/15 11:43:50;;;;;;;5.30;4.90;;;23.30;85.00;;;;;;6196159;28;89111;-69
2023/06/15 11:46:56;;;;;;;5.50;5.00;;;23.40;85.10;;;;;;6202536;28;89102;-69
2023/06/15 11:49:59;;;;;;;5.43;5.00;;;23.30;85.00;;;;;;6187874;28;89151;-69
2023/06/15 11:53:01;;;;;;;5.60;5.10;;;23.30;85.00;;;;;;6201436;28;88199;-68
2023/06/15 11:56:07;;;;;;;5.40;4.90;;;23.30;85.00;;;;;;6206442;28;87944;-69
2023/06/15 11:59:10;;;;;;;5.63;5.10;;;23.30;84.90;;;;;;6204571;28;89013;-69
2023/06/15 12:02:13;;;;;;;5.05;4.55;;;23.30;84.90;;;;;;6205207;28;90165;-69
2023/06/15 12:05:17;;;;;;;4.97;4.57;;;23.30;84.80;;;;;;6195113;28;88328;-69
2023/06/15 12:08:19;;;;;;;5.35;4.85;;;23.30;84.80;;;;;;6205087;28;89351;-69
2023/06/15 12:11:23;;;;;;;5.40;4.95;;;23.30;84.80;;;;;;6204753;28;89248;-69
2023/06/15 12:14:26;;;;;;;5.05;4.65;;;23.30;84.90;;;;;;6201041;28;88960;-69
2023/06/15 12:17:31;;;;;;;5.82;5.30;;;23.40;84.90;;;;;;6204169;28;89187;-68
2023/06/15 12:20:37;;;;;;;5.00;4.60;;;23.30;84.70;;;;;;6204308;28;88900;-69
2023/06/15 12:23:39;;;;;;;5.13;4.70;;;23.30;84.70;;;;;;6200460;28;87672;-68
2023/06/15 12:26:48;;;;;;;4.85;4.45;;;23.30;84.80;;;;;;6202122;28;90769;-69
2023/06/15 12:29:53;;;;;;;4.80;4.40;;;23.30;84.70;;;;;;6202402;28;88943;-69
2023/06/15 12:32:55;;;;;;;4.88;4.47;;;23.30;85.60;;;;;;6205601;28;90269;-68
2023/06/15 12:35:59;;;;;;;5.40;4.90;;;23.30;84.80;;;;;;6196158;28;89042;-68
2023/06/15 12:39:05;;;;;;;4.78;4.38;;;23.30;84.80;;;;;;6204724;28;89142;-68
2023/06/15 12:42:09;;;;;;;4.70;4.30;;;23.30;84.80;;;;;;6205729;28;89382;-68
2023/06/15 12:45:13;;;;;;;4.80;4.40;;;23.30;84.70;;;;;;6193361;28;89154;-68
2023/06/15 12:48:16;;;;;;;4.35;4.00;;;23.30;84.60;;;;;;6205449;28;89359;-68
2023/06/15 12:51:18;;;;;;;5.00;4.60;;;23.40;84.70;;;;;;6203485;28;88892;-69
2023/06/15 12:54:20;;;;;;;4.70;4.30;;;23.30;84.50;;;;;;6191327;28;87217;-69
2023/06/15 12:57:23;;;;;;;5.70;4.85;;;23.30;84.40;;;;;;6194736;28;89110;-69
2023/06/15 13:00:26;;;;;;;4.78;4.40;;;23.40;84.50;;;;;;6204943;28;89154;-68
2023/06/15 13:03:28;;;;;;;4.80;4.40;;;23.40;84.50;;;;;;6205023;28;90364;-69
2023/06/15 13:06:30;;;;;;;4.80;4.40;;;23.30;84.40;;;;;;6204283;28;89066;-69
2023/06/15 13:09:32;;;;;;;4.95;4.55;;;23.30;84.40;;;;;;6205386;28;87978;-68
2023/06/15 13:12:36;;;;;;;4.57;4.18;;;23.30;84.40;;;;;;6199327;28;87882;-69
2023/06/15 13:15:38;;;;;;;4.53;4.13;;;23.30;84.50;;;;;;6205370;28;89587;-68
2023/06/15 13:18:40;;;;;;;4.53;4.13;;;23.30;84.50;;;;;;6203785;28;89243;-68
2023/06/15 13:21:43;;;;;;;4.70;4.30;;;23.40;84.50;;;;;;6204156;28;89472;-69
2023/06/15 13:24:44;;;;;;;4.30;3.95;;;23.40;84.50;;;;;;6204622;28;88383;-69
2023/06/15 13:27:48;;;;;;;4.53;4.13;;;23.30;84.50;;;;;;6205012;28;88105;-69
2023/06/15 13:30:51;;;;;;;4.78;4.30;;;23.30;84.50;;;;;;6205004;28;89054;-68
2023/06/15 13:33:53;;;;;;;4.80;4.40;;;23.40;84.50;;;;;;6204281;28;89993;-69
2023/06/15 13:36:55;;;;;;;4.43;4.03;;;23.40;84.50;;;;;;6204531;28;89040;-69
2023/06/15 13:39:57;;;;;;;4.50;4.10;;;23.40;84.50;;;;;;6192138;28;87938;-69
2023/06/15 13:43:00;;;;;;;4.20;3.83;;;23.30;84.50;;;;;;6204392;28;88023;-69
2023/06/15 13:46:02;;;;;;;4.43;4.03;;;23.40;84.50;;;;;;6204937;28;88239;-69
2023/06/15 13:49:05;;;;;;;4.00;3.70;;;23.40;84.70;;;;;;6203810;28;89019;-69
2023/06/15 13:52:07;;;;;;;4.72;4.22;;;23.30;84.60;;;;;;6202792;28;88961;-69
2023/06/15 13:55:10;;;;;;;4.72;4.28;;;23.40;84.70;;;;;;6198268;28;88659;-69
2023/06/15 13:58:13;;;;;;;3.97;3.67;;;23.30;84.50;;;;;;6208847;28;89151;-69
2023/06/15 14:01:15;;;;;;;4.70;4.30;;;23.40;84.50;;;;;;6208790;28;89095;-69
2023/06/15 14:04:17;;;;;;;4.43;4.03;;;23.40;84.40;;;;;;6205767;28;90060;-70
2023/06/15 14:07:19;;;;;;;4.32;3.95;;;23.40;84.20;;;;;;6207751;28;89284;-69
2023/06/15 14:10:22;;;;;;;4.35;4.00;;;23.40;84.20;;;;;;6206746;28;89009;-70
2023/06/15 14:13:26;;;;;;;4.10;3.80;;;23.40;84.10;;;;;;6204332;28;87994;-69
2023/06/15 14:16:28;;;;;;;4.50;4.10;;;23.40;84.20;;;;;;6186360;28;87830;-69
2023/06/15 14:19:30;;;;;;;5.03;4.53;;;23.30;84.20;;;;;;6207706;28;89057;-69
2023/06/15 14:22:32;;;;;;;4.32;3.92;;;23.40;84.20;;;;;;6197511;28;89137;-69
2023/06/15 14:25:34;;;;;;;4.28;3.97;;;23.40;84.30;;;;;;6207807;28;88366;-69
2023/06/15 14:28:38;;;;;;;4.53;4.13;;;23.40;84.40;;;;;;6207676;28;89036;-69
2023/06/15 14:31:45;;;;;;;4.55;4.15;;;23.30;84.20;;;;;;6207626;28;89091;-69
2023/06/15 14:34:47;;;;;;;4.70;4.30;;;23.40;84.20;;;;;;6197961;28;90257;-70
2023/06/15 14:37:51;;;;;;;4.05;3.75;;;23.40;84.10;;;;;;6202564;28;89212;-69
2023/06/15 14:40:53;;;;;;;3.72;3.42;;;23.30;84.00;;;;;;6205144;28;89187;-69
2023/06/15 14:43:56;;;;;;;4.50;4.05;;;23.40;84.00;;;;;;6206748;28;89114;-70
2023/06/15 14:46:58;;;;;;;4.20;3.90;;;23.30;83.80;;;;;;6191943;28;89114;-69
2023/06/15 14:50:00;;;;;;;4.15;3.78;;;23.30;83.90;;;;;;6200239;28;89207;-69
2023/06/15 14:53:02;;;;;;;4.32;3.97;;;23.40;84.10;;;;;;6198626;28;88427;-69
2023/06/15 14:56:05;;;;;;;4.18;3.88;;;23.30;84.00;;;;;;6208311;28;88364;-69
2023/06/15 14:59:09;;;;;;;4.32;3.92;;;23.30;83.90;;;;;;6207372;28;88080;-69
2023/06/15 15:02:10;;;;;;;4.28;3.88;;;23.40;84.00;;;;;;6200940;28;87893;-69
2023/06/15 15:05:12;;;;;;;4.32;3.92;;;23.30;83.90;;;;;;6207362;28;90120;-69
2023/06/15 15:08:14;;;;;;;4.30;3.90;;;23.30;84.00;;;;;;6207129;28;89049;-69
2023/06/15 15:11:16;;;;;;;4.15;3.75;;;23.30;84.00;;;;;;6208123;28;89201;-70
2023/06/15 15:14:20;;;;;;;4.35;3.95;;;23.30;84.10;;;;;;6201672;28;89347;-69
2023/06/15 15:17:22;;;;;;;4.35;3.95;;;23.40;84.20;;;;;;6207119;28;88932;-69
2023/06/15 15:20:24;;;;;;;4.03;3.72;;;23.40;84.20;;;;;;6207091;28;89109;-70
2023/06/15 15:23:26;;;;;;;4.15;3.75;;;23.30;84.10;;;;;;6207050;28;89095;-69
2023/06/15 15:26:28;;;;;;;4.60;4.20;;;23.40;84.00;;;;;;6206437;28;88340;-69
2023/06/15 15:29:31;;;;;;;3.90;3.60;;;23.40;83.80;;;;;;6207350;28;89673;-69
2023/06/15 15:32:33;;;;;;;4.80;4.15;;;23.40;83.80;;;;;;6204516;28;88262;-69
2023/06/15 15:35:35;;;;;;;4.00;3.70;;;23.40;83.80;;;;;;6206785;28;90121;-69
2023/06/15 15:38:37;;;;;;;4.10;3.80;;;23.30;83.80;;;;;;6197817;28;89102;-69
2023/06/15 15:41:39;;;;;;;4.50;4.10;;;23.40;84.00;;;;;;6204614;28;89385;-69
2023/06/15 15:44:42;;;;;;;4.28;3.90;;;23.40;84.20;;;;;;6206982;28;89050;-69
2023/06/15 15:47:44;;;;;;;4.65;4.20;;;23.30;84.00;;;;;;6206653;28;89534;-69
2023/06/15 15:50:47;;;;;;;4.47;3.95;;;23.40;83.80;;;;;;6207293;28;89102;-69
2023/06/15 15:53:49;;;;;;;4.85;4.32;;;23.40;83.80;;;;;;6195021;28;89132;-69
2023/06/15 15:56:51;;;;;;;4.03;3.72;;;23.30;83.80;;;;;;6193559;28;88479;-69